Jj Sky — VRJA6 — position and weather

sailwx.info

Track history (hours):
 
Tides and Currents Weather Stations Pressure Air Temp Water Temp Dewpoint Dewpoint Depression Visibility Wind Speed Wind Dir Waves Ship Positions

Jj Sky

Last reported at 2015-Jul-07 04:33 UTC. Time now 2015-Jul-08 04:21 UTC.
Position N 34°38' E 135°00'.

Length 148 m; draft 6.8 m.

Type: Ship. MMSI: 477397500.

Date/timePositionNaut miles runAvg speedWind from/ knotsBaromVisibWave heightAir tempDewpointWater temp
2015-Jul-07 04:33N 34°38' E 135°00'1212.1
2015-Jul-07 03:33N 34°39' E 135°15'0 0.2
2015-Jul-07 02:31N 34°39' E 135°15'0 0.0
2015-Jul-07 01:12N 34°39' E 135°15'0 0.0
2015-Jul-07 00:30N 34°39' E 135°15'0 0.0
2015-Jul-06 23:25N 34°39' E 135°15'0 0.0
2015-Jul-06 22:28N 34°39' E 135°15'4 4.0
2015-Jul-06 21:28N 34°39' E 135°19'4 4.3
2015-Jul-06 20:33N 34°39' E 135°24'0 0.0
2015-Jul-06 19:33N 34°39' E 135°24'0 0.1
2015-Jul-06 18:33N 34°39' E 135°24'0 0.0
2015-Jul-06 17:33N 34°39' E 135°24'0 0.1
2015-Jul-06 16:33N 34°39' E 135°24'0 0.0
2015-Jul-06 15:33N 34°39' E 135°24'0 0.0
2015-Jul-06 14:33N 34°39' E 135°24'0 0.0
2015-Jul-06 13:33N 34°39' E 135°24'0 0.0
2015-Jul-06 12:33N 34°39' E 135°24'0 0.0
2015-Jul-06 11:33N 34°39' E 135°24'0 0.0
2015-Jul-06 10:33N 34°39' E 135°24'0 0.0
2015-Jul-06 09:33N 34°39' E 135°24'0 0.0
2015-Jul-06 08:33N 34°39' E 135°24'0 0.0
2015-Jul-06 07:33N 34°39' E 135°24'0 0.0
2015-Jul-06 06:33N 34°39' E 135°24'0 0.0
2015-Jul-06 05:30N 34°39' E 135°24'0 0.0
2015-Jul-06 04:33N 34°39' E 135°24'0 0.0
2015-Jul-06 03:33N 34°39' E 135°24'0 0.0
2015-Jul-06 02:33N 34°39' E 135°24'0 0.0
2015-Jul-06 01:33N 34°39' E 135°24'0 0.0
2015-Jul-06 00:33N 34°39' E 135°24'0 0.0
2015-Jul-05 23:33N 34°39' E 135°24'0 0.0
2015-Jul-05 22:33N 34°39' E 135°24'3 2.5
2015-Jul-05 21:31N 34°37' E 135°22'1412.7
2015-Jul-05 20:24N 34°28' E 135°09'1213.9
2015-Jul-05 19:33N 34°19' E 135°00'1312.8
2015-Jul-05 18:33N 34°06' E 134°57'57713.7
2015-Jul-04 00:33N 30°58' E 124°10'4414.6
2015-Jul-03 21:33N 30°55' E 123°19'1515.5
2015-Jul-03 20:33N 30°58' E 123°01'1716.6
2015-Jul-03 19:32N 30°59' E 122°41'1816.9
2015-Jul-03 18:28N 31°01' E 122°20'1314.5
2015-Jul-03 17:34N 31°04' E 122°05'1313.1
2015-Jul-03 16:33N 31°10' E 121°52'1212.2
2015-Jul-03 15:33N 31°19' E 121°42'1 1.3
2015-Jul-03 14:29N 31°20' E 121°40'0 0.1
2015-Jul-03 13:31N 31°20' E 121°40'0 0.0
2015-Jul-03 12:31N 31°20' E 121°40'0 0.1
2015-Jul-03 11:29N 31°20' E 121°40'0 0.0
2015-Jul-03 10:30N 31°20' E 121°40'0 0.1
2015-Jul-03 09:28N 31°20' E 121°40'0 0.1
2015-Jul-03 08:25N 31°20' E 121°40'0 0.0
2015-Jul-03 07:33N 31°20' E 121°40'0 0.0
2015-Jul-03 06:30N 31°20' E 121°40'0 0.0
2015-Jul-03 05:33N 31°20' E 121°40'3 3.1
2015-Jul-03 04:33N 31°18' E 121°43'10 9.6
2015-Jul-03 03:33N 31°11' E 121°51'9 9.1
2015-Jul-03 02:33N 31°06' E 121°60'1211.6
2015-Jul-03 01:33N 31°03' E 122°13'1312.2
2015-Jul-03 00:30N 31°01' E 122°28'1110.9
2015-Jul-02 23:30N 30°60' E 122°40'3 3.1
2015-Jul-02 22:25N 31°03' E 122°42'0 0.0
2015-Jul-02 21:24N 31°03' E 122°42'0 0.0
2015-Jul-02 18:23N 31°03' E 122°42'0 0.0
2015-Jul-02 10:32N 31°03' E 122°42'0 0.0
2015-Jul-02 09:19N 31°03' E 122°42'0 0.0
2015-Jul-02 07:33N 31°03' E 122°42'1 0.5
2015-Jul-02 05:15N 31°04' E 122°43'2213.2
2015-Jul-02 03:34N 31°18' E 123°02'1614.4
2015-Jul-02 02:26N 31°25' E 123°20'3214.9
2015-Jul-02 00:16N 31°38' E 123°54'1115.7
2015-Jul-01 23:33N 31°43' E 124°06'1715.8
2015-Jul-01 22:29N 31°51' E 124°24'1515.5
2015-Jul-01 21:31N 31°59' E 124°39'30514.4
2015-Jul-01 00:22N 33°58' E 130°14'2913.4
2015-Jun-30 22:11N 34°02' E 130°49'20413.1
2015-Jun-30 06:32N 34°35' E 134°53'1313.7
2015-Jun-30 05:33N 34°36' E 135°09'5 5.2
2015-Jun-30 04:33N 34°39' E 135°15'0 0.0
2015-Jun-30 03:33N 34°39' E 135°15'0 0.0
2015-Jun-30 02:32N 34°39' E 135°15'0 0.1
2015-Jun-30 01:33N 34°39' E 135°15'0 0.0
2015-Jun-30 00:32N 34°39' E 135°15'0 0.0
2015-Jun-29 23:33N 34°39' E 135°15'0 0.1
2015-Jun-29 22:33N 34°39' E 135°15'2 1.8
2015-Jun-29 21:33N 34°38' E 135°16'6 6.2
2015-Jun-29 20:31N 34°39' E 135°24'0 0.0
2015-Jun-29 19:31N 34°39' E 135°24'0 0.0
2015-Jun-29 18:24N 34°39' E 135°24'0 0.0
2015-Jun-29 17:30N 34°39' E 135°24'0 0.0
2015-Jun-29 16:11N 34°39' E 135°24'0 0.1
2015-Jun-29 15:29N 34°39' E 135°24'0 0.1
2015-Jun-29 14:28N 34°39' E 135°24'0 0.0
2015-Jun-29 13:23N 34°39' E 135°24'0 0.0
2015-Jun-29 12:33N 34°39' E 135°24'0 0.1
2015-Jun-29 11:29N 34°39' E 135°24'0 0.1
2015-Jun-29 10:29N 34°39' E 135°24'0 0.1
2015-Jun-29 09:16N 34°39' E 135°24'0 0.0
2015-Jun-29 08:28N 34°39' E 135°24'0 0.1
2015-Jun-29 07:33N 34°39' E 135°24'0 0.1
2015-Jun-29 06:27N 34°39' E 135°24'0 0.1
2015-Jun-29 05:33N 34°39' E 135°24'0 0.0
2015-Jun-29 04:32N 34°39' E 135°24'0 0.0
2015-Jun-29 03:32N 34°39' E 135°24'0 0.0
2015-Jun-29 02:31N 34°39' E 135°24'0 0.1
2015-Jun-29 01:32N 34°39' E 135°24'0 0.1
2015-Jun-29 00:13N 34°39' E 135°24'0 0.1
2015-Jun-28 23:33N 34°39' E 135°24'1 0.7
2015-Jun-28 21:33N 34°38' E 135°23'10 9.6
2015-Jun-28 20:33N 34°32' E 135°15'1312.7
2015-Jun-28 19:33N 34°22' E 135°04'1313.2
2015-Jun-28 18:33N 34°10' E 134°58'  
Track history (hours):
 
Tides and Currents Weather Stations Pressure Air Temp Water Temp Dewpoint Dewpoint Depression Visibility Wind Speed Wind Dir Waves Ship Positions

Jj Sky

Last reported at 2015-Jul-07 04:33 UTC. Time now 2015-Jul-08 04:21 UTC.
Position N 34°38' E 135°00'.

Length 148 m; draft 6.8 m.

Type: Ship. MMSI: 477397500.

Date/timePositionNaut miles runAvg speedWind from/ knotsBaromVisibWave heightAir tempDewpointWater temp
2015-Jul-07 04:33N 34°38' E 135°00'1212.1
2015-Jul-07 03:33N 34°39' E 135°15'0 0.2
2015-Jul-07 02:31N 34°39' E 135°15'0 0.0
2015-Jul-07 01:12N 34°39' E 135°15'0 0.0
2015-Jul-07 00:30N 34°39' E 135°15'0 0.0
2015-Jul-06 23:25N 34°39' E 135°15'0 0.0
2015-Jul-06 22:28N 34°39' E 135°15'4 4.0
2015-Jul-06 21:28N 34°39' E 135°19'4 4.3
2015-Jul-06 20:33N 34°39' E 135°24'0 0.0
2015-Jul-06 19:33N 34°39' E 135°24'0 0.1
2015-Jul-06 18:33N 34°39' E 135°24'0 0.0
2015-Jul-06 17:33N 34°39' E 135°24'0 0.1
2015-Jul-06 16:33N 34°39' E 135°24'0 0.0
2015-Jul-06 15:33N 34°39' E 135°24'0 0.0
2015-Jul-06 14:33N 34°39' E 135°24'0 0.0
2015-Jul-06 13:33N 34°39' E 135°24'0 0.0
2015-Jul-06 12:33N 34°39' E 135°24'0 0.0
2015-Jul-06 11:33N 34°39' E 135°24'0 0.0
2015-Jul-06 10:33N 34°39' E 135°24'0 0.0
2015-Jul-06 09:33N 34°39' E 135°24'0 0.0
2015-Jul-06 08:33N 34°39' E 135°24'0 0.0
2015-Jul-06 07:33N 34°39' E 135°24'0 0.0
2015-Jul-06 06:33N 34°39' E 135°24'0 0.0
2015-Jul-06 05:30N 34°39' E 135°24'0 0.0
2015-Jul-06 04:33N 34°39' E 135°24'0 0.0
2015-Jul-06 03:33N 34°39' E 135°24'0 0.0
2015-Jul-06 02:33N 34°39' E 135°24'0 0.0
2015-Jul-06 01:33N 34°39' E 135°24'0 0.0
2015-Jul-06 00:33N 34°39' E 135°24'0 0.0
2015-Jul-05 23:33N 34°39' E 135°24'0 0.0
2015-Jul-05 22:33N 34°39' E 135°24'3 2.5
2015-Jul-05 21:31N 34°37' E 135°22'1412.7
2015-Jul-05 20:24N 34°28' E 135°09'1213.9
2015-Jul-05 19:33N 34°19' E 135°00'1312.8
2015-Jul-05 18:33N 34°06' E 134°57'57713.7
2015-Jul-04 00:33N 30°58' E 124°10'4414.6
2015-Jul-03 21:33N 30°55' E 123°19'1515.5
2015-Jul-03 20:33N 30°58' E 123°01'1716.6
2015-Jul-03 19:32N 30°59' E 122°41'1816.9
2015-Jul-03 18:28N 31°01' E 122°20'1314.5
2015-Jul-03 17:34N 31°04' E 122°05'1313.1
2015-Jul-03 16:33N 31°10' E 121°52'1212.2
2015-Jul-03 15:33N 31°19' E 121°42'1 1.3
2015-Jul-03 14:29N 31°20' E 121°40'0 0.1
2015-Jul-03 13:31N 31°20' E 121°40'0 0.0
2015-Jul-03 12:31N 31°20' E 121°40'0 0.1
2015-Jul-03 11:29N 31°20' E 121°40'0 0.0
2015-Jul-03 10:30N 31°20' E 121°40'0 0.1
2015-Jul-03 09:28N 31°20' E 121°40'0 0.1
2015-Jul-03 08:25N 31°20' E 121°40'0 0.0
2015-Jul-03 07:33N 31°20' E 121°40'0 0.0
2015-Jul-03 06:30N 31°20' E 121°40'0 0.0
2015-Jul-03 05:33N 31°20' E 121°40'3 3.1
2015-Jul-03 04:33N 31°18' E 121°43'10 9.6
2015-Jul-03 03:33N 31°11' E 121°51'9 9.1
2015-Jul-03 02:33N 31°06' E 121°60'1211.6
2015-Jul-03 01:33N 31°03' E 122°13'1312.2
2015-Jul-03 00:30N 31°01' E 122°28'1110.9
2015-Jul-02 23:30N 30°60' E 122°40'3 3.1
2015-Jul-02 22:25N 31°03' E 122°42'0 0.0
2015-Jul-02 21:24N 31°03' E 122°42'0 0.0
2015-Jul-02 18:23N 31°03' E 122°42'0 0.0
2015-Jul-02 10:32N 31°03' E 122°42'0 0.0
2015-Jul-02 09:19N 31°03' E 122°42'0 0.0
2015-Jul-02 07:33N 31°03' E 122°42'1 0.5
2015-Jul-02 05:15N 31°04' E 122°43'2213.2
2015-Jul-02 03:34N 31°18' E 123°02'1614.4
2015-Jul-02 02:26N 31°25' E 123°20'3214.9
2015-Jul-02 00:16N 31°38' E 123°54'1115.7
2015-Jul-01 23:33N 31°43' E 124°06'1715.8
2015-Jul-01 22:29N 31°51' E 124°24'1515.5
2015-Jul-01 21:31N 31°59' E 124°39'30514.4
2015-Jul-01 00:22N 33°58' E 130°14'2913.4
2015-Jun-30 22:11N 34°02' E 130°49'20413.1
2015-Jun-30 06:32N 34°35' E 134°53'1313.7
2015-Jun-30 05:33N 34°36' E 135°09'5 5.2
2015-Jun-30 04:33N 34°39' E 135°15'0 0.0
2015-Jun-30 03:33N 34°39' E 135°15'0 0.0
2015-Jun-30 02:32N 34°39' E 135°15'0 0.1
2015-Jun-30 01:33N 34°39' E 135°15'0 0.0
2015-Jun-30 00:32N 34°39' E 135°15'0 0.0
2015-Jun-29 23:33N 34°39' E 135°15'0 0.1
2015-Jun-29 22:33N 34°39' E 135°15'2 1.8
2015-Jun-29 21:33N 34°38' E 135°16'6 6.2
2015-Jun-29 20:31N 34°39' E 135°24'0 0.0
2015-Jun-29 19:31N 34°39' E 135°24'0 0.0
2015-Jun-29 18:24N 34°39' E 135°24'0 0.0
2015-Jun-29 17:30N 34°39' E 135°24'0 0.0
2015-Jun-29 16:11N 34°39' E 135°24'0 0.1
2015-Jun-29 15:29N 34°39' E 135°24'0 0.1
2015-Jun-29 14:28N 34°39' E 135°24'0 0.0
2015-Jun-29 13:23N 34°39' E 135°24'0 0.0
2015-Jun-29 12:33N 34°39' E 135°24'0 0.1
2015-Jun-29 11:29N 34°39' E 135°24'0 0.1
2015-Jun-29 10:29N 34°39' E 135°24'0 0.1
2015-Jun-29 09:16N 34°39' E 135°24'0 0.0
2015-Jun-29 08:28N 34°39' E 135°24'0 0.1
2015-Jun-29 07:33N 34°39' E 135°24'0 0.1
2015-Jun-29 06:27N 34°39' E 135°24'0 0.1
2015-Jun-29 05:33N 34°39' E 135°24'0 0.0
2015-Jun-29 04:32N 34°39' E 135°24'0 0.0
2015-Jun-29 03:32N 34°39' E 135°24'0 0.0
2015-Jun-29 02:31N 34°39' E 135°24'0 0.1
2015-Jun-29 01:32N 34°39' E 135°24'0 0.1
2015-Jun-29 00:13N 34°39' E 135°24'0 0.1
2015-Jun-28 23:33N 34°39' E 135°24'1 0.7
2015-Jun-28 21:33N 34°38' E 135°23'10 9.6
2015-Jun-28 20:33N 34°32' E 135°15'1312.7
2015-Jun-28 19:33N 34°22' E 135°04'1313.2
2015-Jun-28 18:33N 34°10' E 134°58'  

Dump ship's entire track history